sensor_id;sensor_type;location;lat;lon;timestamp;temperature;humidity
22676;DHT22;12521;43.310;21.876;2023-04-03T00:01:28;9.8;96.0
22676;DHT22;12521;43.310;21.876;2023-04-03T00:06:05;9.7;96.0
22676;DHT22;12521;43.310;21.876;2023-04-03T00:10:42;9.7;96.0
22676;DHT22;12521;43.310;21.876;2023-04-03T00:15:19;9.6;96.0
22676;DHT22;12521;43.310;21.876;2023-04-03T00:19:56;9.6;96.0
22676;DHT22;12521;43.310;21.876;2023-04-03T00:24:33;9.5;96.0
22676;DHT22;12521;43.310;21.876;2023-04-03T00:29:09;9.5;96.0
22676;DHT22;12521;43.310;21.876;2023-04-03T00:33:46;9.4;96.0
22676;DHT22;12521;43.310;21.876;2023-04-03T00:38:23;9.4;96.0
22676;DHT22;12521;43.310;21.876;2023-04-03T00:43:10;9.4;96.0
22676;DHT22;12521;43.310;21.876;2023-04-03T00:47:56;9.3;96.0
22676;DHT22;12521;43.310;21.876;2023-04-03T00:52:41;9.3;96.0
22676;DHT22;12521;43.310;21.876;2023-04-03T00:57:18;9.0;96.0
22676;DHT22;12521;43.310;21.876;2023-04-03T01:01:57;9.0;96.0
22676;DHT22;12521;43.310;21.876;2023-04-03T01:06:37;8.8;96.0
22676;DHT22;12521;43.310;21.876;2023-04-03T01:11:13;8.8;96.0
22676;DHT22;12521;43.310;21.876;2023-04-03T01:15:50;8.8;96.0
22676;DHT22;12521;43.310;21.876;2023-04-03T01:22:15;8.8;96.0
22676;DHT22;12521;43.310;21.876;2023-04-03T01:36:33;8.6;96.0
22676;DHT22;12521;43.310;21.876;2023-04-03T01:41:10;8.6;96.0
22676;DHT22;12521;43.310;21.876;2023-04-03T01:45:47;8.6;96.0
22676;DHT22;12521;43.310;21.876;2023-04-03T01:50:24;8.6;96.0
22676;DHT22;12521;43.310;21.876;2023-04-03T01:55:01;8.6;96.0
22676;DHT22;12521;43.310;21.876;2023-04-03T01:59:38;8.6;96.0
22676;DHT22;12521;43.310;21.876;2023-04-03T02:04:15;8.5;96.0
22676;DHT22;12521;43.310;21.876;2023-04-03T02:08:52;8.5;96.0
22676;DHT22;12521;43.310;21.876;2023-04-03T02:13:29;8.5;96.0
22676;DHT22;12521;43.310;21.876;2023-04-03T02:18:08;8.5;96.0
22676;DHT22;12521;43.310;21.876;2023-04-03T02:22:47;8.5;96.0
22676;DHT22;12521;43.310;21.876;2023-04-03T02:27:24;8.5;96.0
22676;DHT22;12521;43.310;21.876;2023-04-03T02:32:01;8.5;96.0
22676;DHT22;12521;43.310;21.876;2023-04-03T02:36:38;8.4;96.0
22676;DHT22;12521;43.310;21.876;2023-04-03T02:41:14;8.4;96.0
22676;DHT22;12521;43.310;21.876;2023-04-03T02:45:51;8.4;96.0
22676;DHT22;12521;43.310;21.876;2023-04-03T02:50:27;8.4;96.0
22676;DHT22;12521;43.310;21.876;2023-04-03T02:55:06;8.4;96.0
22676;DHT22;12521;43.310;21.876;2023-04-03T02:59:43;8.4;96.0
22676;DHT22;12521;43.310;21.876;2023-04-03T03:04:20;8.4;96.0
22676;DHT22;12521;43.310;21.876;2023-04-03T03:08:57;8.4;96.0
22676;DHT22;12521;43.310;21.876;2023-04-03T03:13:35;8.2;96.0
22676;DHT22;12521;43.310;21.876;2023-04-03T03:18:13;8.2;96.0
22676;DHT22;12521;43.310;21.876;2023-04-03T03:22:50;8.2;96.0
22676;DHT22;12521;43.310;21.876;2023-04-03T03:27:27;8.0;96.0
22676;DHT22;12521;43.310;21.876;2023-04-03T03:32:05;8.0;96.0
22676;DHT22;12521;43.310;21.876;2023-04-03T03:36:41;8.0;96.0
22676;DHT22;12521;43.310;21.876;2023-04-03T03:41:18;8.0;96.0
22676;DHT22;12521;43.310;21.876;2023-04-03T03:45:55;7.9;96.0
22676;DHT22;12521;43.310;21.876;2023-04-03T03:50:32;7.9;96.0
22676;DHT22;12521;43.310;21.876;2023-04-03T03:55:09;8.0;96.0
22676;DHT22;12521;43.310;21.876;2023-04-03T03:59:45;8.0;96.0
22676;DHT22;12521;43.310;21.876;2023-04-03T04:04:22;8.0;96.0
22676;DHT22;12521;43.310;21.876;2023-04-03T04:08:58;8.0;96.0
22676;DHT22;12521;43.310;21.876;2023-04-03T04:13:35;8.1;96.0
22676;DHT22;12521;43.310;21.876;2023-04-03T04:18:11;8.1;96.0
22676;DHT22;12521;43.310;21.876;2023-04-03T04:22:48;8.1;96.0
22676;DHT22;12521;43.310;21.876;2023-04-03T04:27:25;8.2;96.0
22676;DHT22;12521;43.310;21.876;2023-04-03T04:32:03;8.2;96.0
22676;DHT22;12521;43.310;21.876;2023-04-03T04:36:41;8.2;96.0
22676;DHT22;12521;43.310;21.876;2023-04-03T04:41:20;8.2;96.0
22676;DHT22;12521;43.310;21.876;2023-04-03T04:46:06;8.3;96.0
22676;DHT22;12521;43.310;21.876;2023-04-03T04:50:46;8.3;96.0
22676;DHT22;12521;43.310;21.876;2023-04-03T04:55:23;8.3;96.0
22676;DHT22;12521;43.310;21.876;2023-04-03T05:00:00;8.3;96.0
22676;DHT22;12521;43.310;21.876;2023-04-03T05:04:37;8.3;96.0
22676;DHT22;12521;43.310;21.876;2023-04-03T05:09:14;8.3;96.0
22676;DHT22;12521;43.310;21.876;2023-04-03T05:13:50;8.4;96.0
22676;DHT22;12521;43.310;21.876;2023-04-03T05:18:27;8.4;96.0
22676;DHT22;12521;43.310;21.876;2023-04-03T05:23:04;8.4;96.0
22676;DHT22;12521;43.310;21.876;2023-04-03T05:27:40;8.5;96.0
22676;DHT22;12521;43.310;21.876;2023-04-03T05:32:17;8.5;96.0
22676;DHT22;12521;43.310;21.876;2023-04-03T05:36:53;8.6;96.0
22676;DHT22;12521;43.310;21.876;2023-04-03T05:41:29;8.6;96.0
22676;DHT22;12521;43.310;21.876;2023-04-03T05:46:12;8.6;96.0
22676;DHT22;12521;43.310;21.876;2023-04-03T05:50:56;8.6;96.0
22676;DHT22;12521;43.310;21.876;2023-04-03T05:55:34;8.8;96.0
22676;DHT22;12521;43.310;21.876;2023-04-03T06:00:16;8.8;96.0
22676;DHT22;12521;43.310;21.876;2023-04-03T06:04:55;8.9;96.0
22676;DHT22;12521;43.310;21.876;2023-04-03T06:09:32;8.9;96.0
22676;DHT22;12521;43.310;21.876;2023-04-03T06:14:11;9.2;96.0
22676;DHT22;12521;43.310;21.876;2023-04-03T06:18:48;9.2;96.0
22676;DHT22;12521;43.310;21.876;2023-04-03T06:23:25;9.2;96.0
22676;DHT22;12521;43.310;21.876;2023-04-03T06:28:02;9.5;96.0
22676;DHT22;12521;43.310;21.876;2023-04-03T06:32:38;9.5;96.0
22676;DHT22;12521;43.310;21.876;2023-04-03T06:37:20;9.8;96.0
22676;DHT22;12521;43.310;21.876;2023-04-03T06:41:57;9.8;96.0
22676;DHT22;12521;43.310;21.876;2023-04-03T06:46:33;10.0;96.0
22676;DHT22;12521;43.310;21.876;2023-04-03T06:51:21;10.0;96.0
22676;DHT22;12521;43.310;21.876;2023-04-03T06:55:58;10.2;96.0
22676;DHT22;12521;43.310;21.876;2023-04-03T07:00:34;10.2;96.0
22676;DHT22;12521;43.310;21.876;2023-04-03T07:05:12;10.3;96.0
22676;DHT22;12521;43.310;21.876;2023-04-03T07:09:49;10.3;96.0
22676;DHT22;12521;43.310;21.876;2023-04-03T07:14:26;10.5;96.0
22676;DHT22;12521;43.310;21.876;2023-04-03T07:19:03;10.5;96.0
22676;DHT22;12521;43.310;21.876;2023-04-03T07:23:40;10.7;96.0
22676;DHT22;12521;43.310;21.876;2023-04-03T07:28:22;10.7;96.0
22676;DHT22;12521;43.310;21.876;2023-04-03T07:33:00;10.7;96.0
22676;DHT22;12521;43.310;21.876;2023-04-03T07:37:37;10.9;96.0
22676;DHT22;12521;43.310;21.876;2023-04-03T07:42:14;10.9;96.0
22676;DHT22;12521;43.310;21.876;2023-04-03T07:46:51;11.1;96.0
22676;DHT22;12521;43.310;21.876;2023-04-03T07:51:28;11.1;96.0
22676;DHT22;12521;43.310;21.876;2023-04-03T07:56:07;11.2;96.0
22676;DHT22;12521;43.310;21.876;2023-04-03T08:00:46;11.2;96.0
22676;DHT22;12521;43.310;21.876;2023-04-03T08:05:24;11.4;96.0
22676;DHT22;12521;43.310;21.876;2023-04-03T08:10:01;11.4;96.0
22676;DHT22;12521;43.310;21.876;2023-04-03T08:14:38;11.3;96.0
22676;DHT22;12521;43.310;21.876;2023-04-03T08:19:16;11.3;96.0
22676;DHT22;12521;43.310;21.876;2023-04-03T08:23:54;11.2;96.0
22676;DHT22;12521;43.310;21.876;2023-04-03T08:28:31;11.2;96.0
22676;DHT22;12521;43.310;21.876;2023-04-03T08:33:10;11.2;96.0
22676;DHT22;12521;43.310;21.876;2023-04-03T08:37:47;10.8;96.0
22676;DHT22;12521;43.310;21.876;2023-04-03T08:42:53;10.8;96.0
22676;DHT22;12521;43.310;21.876;2023-04-03T08:48:33;10.4;96.0
22676;DHT22;12521;43.310;21.876;2023-04-03T08:53:30;10.4;96.0
22676;DHT22;12521;43.310;21.876;2023-04-03T08:58:21;10.1;96.0
22676;DHT22;12521;43.310;21.876;2023-04-03T09:03:01;10.1;96.0
22676;DHT22;12521;43.310;21.876;2023-04-03T09:07:47;9.8;96.0
22676;DHT22;12521;43.310;21.876;2023-04-03T09:12:39;9.8;96.0
22676;DHT22;12521;43.310;21.876;2023-04-03T09:17:41;9.6;96.0
22676;DHT22;12521;43.310;21.876;2023-04-03T09:22:27;9.6;96.0
22676;DHT22;12521;43.310;21.876;2023-04-03T09:27:10;9.4;96.0
22676;DHT22;12521;43.310;21.876;2023-04-03T09:31:56;9.4;96.0
22676;DHT22;12521;43.310;21.876;2023-04-03T09:36:44;9.3;96.0
22676;DHT22;12521;43.310;21.876;2023-04-03T09:41:22;9.3;96.0
22676;DHT22;12521;43.310;21.876;2023-04-03T09:46:30;9.2;96.0
22676;DHT22;12521;43.310;21.876;2023-04-03T09:51:15;9.2;96.0
22676;DHT22;12521;43.310;21.876;2023-04-03T09:55:52;9.0;96.0
22676;DHT22;12521;43.310;21.876;2023-04-03T10:00:37;9.0;96.0
22676;DHT22;12521;43.310;21.876;2023-04-03T10:05:39;8.9;96.0
22676;DHT22;12521;43.310;21.876;2023-04-03T10:10:22;8.9;96.0
22676;DHT22;12521;43.310;21.876;2023-04-03T10:15:01;8.9;96.0
22676;DHT22;12521;43.310;21.876;2023-04-03T10:20:02;8.9;96.0
22676;DHT22;12521;43.310;21.876;2023-04-03T10:25:27;8.9;96.0
22676;DHT22;12521;43.310;21.876;2023-04-03T10:30:46;8.9;96.0
22676;DHT22;12521;43.310;21.876;2023-04-03T10:36:02;9.0;96.0
22676;DHT22;12521;43.310;21.876;2023-04-03T10:41:13;9.0;96.0
22676;DHT22;12521;43.310;21.876;2023-04-03T10:46:09;9.0;96.0
22676;DHT22;12521;43.310;21.876;2023-04-03T10:51:16;9.0;96.0
22676;DHT22;12521;43.310;21.876;2023-04-03T10:56:13;8.6;96.0
22676;DHT22;12521;43.310;21.876;2023-04-03T11:01:13;8.6;96.0
22676;DHT22;12521;43.310;21.876;2023-04-03T11:06:09;8.3;96.0
22676;DHT22;12521;43.310;21.876;2023-04-03T11:11:06;8.3;96.0
22676;DHT22;12521;43.310;21.876;2023-04-03T11:15:58;8.2;96.0
22676;DHT22;12521;43.310;21.876;2023-04-03T11:20:57;8.2;96.0
22676;DHT22;12521;43.310;21.876;2023-04-03T11:26:12;8.1;96.0
22676;DHT22;12521;43.310;21.876;2023-04-03T11:31:33;8.1;96.0
22676;DHT22;12521;43.310;21.876;2023-04-03T11:37:22;8.2;96.0
22676;DHT22;12521;43.310;21.876;2023-04-03T11:42:33;8.2;96.0
22676;DHT22;12521;43.310;21.876;2023-04-03T11:47:50;8.3;96.0
22676;DHT22;12521;43.310;21.876;2023-04-03T11:53:31;8.3;96.0
22676;DHT22;12521;43.310;21.876;2023-04-03T11:58:17;8.4;96.0
22676;DHT22;12521;43.310;21.876;2023-04-03T12:02:54;8.4;96.0
22676;DHT22;12521;43.310;21.876;2023-04-03T12:07:30;8.4;96.0
22676;DHT22;12521;43.310;21.876;2023-04-03T12:12:35;8.4;96.0
22676;DHT22;12521;43.310;21.876;2023-04-03T12:17:27;8.3;96.0
22676;DHT22;12521;43.310;21.876;2023-04-03T12:22:16;8.3;96.0
22676;DHT22;12521;43.310;21.876;2023-04-03T12:27:28;8.2;96.0
22676;DHT22;12521;43.310;21.876;2023-04-03T12:32:48;8.2;96.0
22676;DHT22;12521;43.310;21.876;2023-04-03T12:39:07;8.0;96.0
22676;DHT22;12521;43.310;21.876;2023-04-03T12:44:48;7.9;96.0
22676;DHT22;12521;43.310;21.876;2023-04-03T12:49:49;7.9;96.0
22676;DHT22;12521;43.310;21.876;2023-04-03T12:54:38;7.8;96.0
22676;DHT22;12521;43.310;21.876;2023-04-03T12:59:23;7.8;96.0
22676;DHT22;12521;43.310;21.876;2023-04-03T13:04:03;7.7;96.0
22676;DHT22;12521;43.310;21.876;2023-04-03T13:08:52;7.7;96.0
22676;DHT22;12521;43.310;21.876;2023-04-03T13:13:29;7.7;96.0
22676;DHT22;12521;43.310;21.876;2023-04-03T13:18:22;7.7;96.0
22676;DHT22;12521;43.310;21.876;2023-04-03T13:23:06;7.7;96.0
22676;DHT22;12521;43.310;21.876;2023-04-03T13:27:45;7.7;96.0
22676;DHT22;12521;43.310;21.876;2023-04-03T13:32:28;7.7;96.0
22676;DHT22;12521;43.310;21.876;2023-04-03T13:37:26;7.6;96.0
22676;DHT22;12521;43.310;21.876;2023-04-03T13:42:26;7.6;96.0
22676;DHT22;12521;43.310;21.876;2023-04-03T13:47:22;7.4;96.0
22676;DHT22;12521;43.310;21.876;2023-04-03T13:52:23;7.4;96.0
22676;DHT22;12521;43.310;21.876;2023-04-03T13:57:16;7.3;96.0
22676;DHT22;12521;43.310;21.876;2023-04-03T14:02:18;7.3;96.0
22676;DHT22;12521;43.310;21.876;2023-04-03T14:07:06;7.2;96.0
22676;DHT22;12521;43.310;21.876;2023-04-03T14:11:44;7.2;96.0
22676;DHT22;12521;43.310;21.876;2023-04-03T14:16:37;7.2;96.0
22676;DHT22;12521;43.310;21.876;2023-04-03T14:21:21;7.2;96.0
22676;DHT22;12521;43.310;21.876;2023-04-03T14:25:59;7.3;96.0
22676;DHT22;12521;43.310;21.876;2023-04-03T14:30:36;7.3;96.0
22676;DHT22;12521;43.310;21.876;2023-04-03T14:35:14;7.3;96.0
22676;DHT22;12521;43.310;21.876;2023-04-03T14:39:53;7.3;96.0
22676;DHT22;12521;43.310;21.876;2023-04-03T14:44:30;7.3;96.0
22676;DHT22;12521;43.310;21.876;2023-04-03T14:49:20;7.3;96.0
22676;DHT22;12521;43.310;21.876;2023-04-03T14:53:57;7.3;96.0
22676;DHT22;12521;43.310;21.876;2023-04-03T14:58:33;7.3;96.0
22676;DHT22;12521;43.310;21.876;2023-04-03T15:03:19;7.3;96.0
22676;DHT22;12521;43.310;21.876;2023-04-03T15:07:59;7.3;96.0
22676;DHT22;12521;43.310;21.876;2023-04-03T15:12:36;7.3;96.0
22676;DHT22;12521;43.310;21.876;2023-04-03T15:17:22;7.2;96.0
22676;DHT22;12521;43.310;21.876;2023-04-03T15:22:00;7.2;96.0
22676;DHT22;12521;43.310;21.876;2023-04-03T15:26:37;7.2;96.0
22676;DHT22;12521;43.310;21.876;2023-04-03T15:31:15;7.2;96.0
22676;DHT22;12521;43.310;21.876;2023-04-03T15:35:51;7.2;96.0
22676;DHT22;12521;43.310;21.876;2023-04-03T15:40:28;7.2;96.0
22676;DHT22;12521;43.310;21.876;2023-04-03T15:45:08;7.2;96.0
22676;DHT22;12521;43.310;21.876;2023-04-03T15:49:46;7.2;96.0
22676;DHT22;12521;43.310;21.876;2023-04-03T15:54:23;7.2;96.0
22676;DHT22;12521;43.310;21.876;2023-04-03T15:58:59;7.2;96.0
22676;DHT22;12521;43.310;21.876;2023-04-03T16:03:36;7.2;96.0
22676;DHT22;12521;43.310;21.876;2023-04-03T16:08:13;7.2;96.0
22676;DHT22;12521;43.310;21.876;2023-04-03T16:12:50;7.2;96.0
22676;DHT22;12521;43.310;21.876;2023-04-03T16:17:28;7.1;96.0
22676;DHT22;12521;43.310;21.876;2023-04-03T16:22:05;7.1;96.0
22676;DHT22;12521;43.310;21.876;2023-04-03T16:26:41;7.0;96.0
22676;DHT22;12521;43.310;21.876;2023-04-03T16:31:20;7.0;96.0
22676;DHT22;12521;43.310;21.876;2023-04-03T16:36:05;7.0;96.0
22676;DHT22;12521;43.310;21.876;2023-04-03T16:40:43;7.0;96.0
22676;DHT22;12521;43.310;21.876;2023-04-03T16:45:20;7.1;96.0
22676;DHT22;12521;43.310;21.876;2023-04-03T16:49:58;7.1;96.0
22676;DHT22;12521;43.310;21.876;2023-04-03T16:54:34;7.1;96.0
22676;DHT22;12521;43.310;21.876;2023-04-03T16:59:12;7.1;96.0
22676;DHT22;12521;43.310;21.876;2023-04-03T17:03:49;7.1;96.0
22676;DHT22;12521;43.310;21.876;2023-04-03T17:08:25;7.1;96.0
22676;DHT22;12521;43.310;21.876;2023-04-03T17:13:01;7.1;96.0
22676;DHT22;12521;43.310;21.876;2023-04-03T17:17:38;7.1;96.0
22676;DHT22;12521;43.310;21.876;2023-04-03T17:22:14;7.1;96.0
22676;DHT22;12521;43.310;21.876;2023-04-03T17:26:50;7.1;96.0
22676;DHT22;12521;43.310;21.876;2023-04-03T17:31:26;7.1;96.0
22676;DHT22;12521;43.310;21.876;2023-04-03T17:36:05;7.1;96.0
22676;DHT22;12521;43.310;21.876;2023-04-03T17:40:43;7.1;96.0
22676;DHT22;12521;43.310;21.876;2023-04-03T17:45:20;7.1;96.0
22676;DHT22;12521;43.310;21.876;2023-04-03T17:49:57;7.1;96.0
22676;DHT22;12521;43.310;21.876;2023-04-03T17:54:34;7.1;96.0
22676;DHT22;12521;43.310;21.876;2023-04-03T17:59:11;7.1;96.0
22676;DHT22;12521;43.310;21.876;2023-04-03T18:03:54;7.1;96.0
22676;DHT22;12521;43.310;21.876;2023-04-03T18:08:46;7.1;96.0
22676;DHT22;12521;43.310;21.876;2023-04-03T18:13:31;7.1;96.0
22676;DHT22;12521;43.310;21.876;2023-04-03T18:18:09;7.0;96.0
22676;DHT22;12521;43.310;21.876;2023-04-03T18:22:47;7.0;96.0
22676;DHT22;12521;43.310;21.876;2023-04-03T18:27:27;7.0;96.0
22676;DHT22;12521;43.310;21.876;2023-04-03T18:32:13;7.0;96.0
22676;DHT22;12521;43.310;21.876;2023-04-03T18:36:55;7.0;96.0
22676;DHT22;12521;43.310;21.876;2023-04-03T18:41:36;7.0;96.0
22676;DHT22;12521;43.310;21.876;2023-04-03T18:46:14;7.1;96.0
22676;DHT22;12521;43.310;21.876;2023-04-03T18:50:51;7.1;96.0
22676;DHT22;12521;43.310;21.876;2023-04-03T18:55:29;7.2;96.0
22676;DHT22;12521;43.310;21.876;2023-04-03T19:00:08;7.2;96.0
22676;DHT22;12521;43.310;21.876;2023-04-03T19:04:48;7.2;96.0
22676;DHT22;12521;43.310;21.876;2023-04-03T19:09:27;7.2;96.0
22676;DHT22;12521;43.310;21.876;2023-04-03T19:14:05;7.2;96.0
22676;DHT22;12521;43.310;21.876;2023-04-03T19:18:42;7.2;96.0
22676;DHT22;12521;43.310;21.876;2023-04-03T19:23:18;7.2;96.0
22676;DHT22;12521;43.310;21.876;2023-04-03T19:27:55;7.3;96.0
22676;DHT22;12521;43.310;21.876;2023-04-03T19:32:31;7.3;96.0
22676;DHT22;12521;43.310;21.876;2023-04-03T19:37:08;7.3;96.0
22676;DHT22;12521;43.310;21.876;2023-04-03T19:41:45;7.3;96.0
22676;DHT22;12521;43.310;21.876;2023-04-03T19:46:25;7.3;96.0
22676;DHT22;12521;43.310;21.876;2023-04-03T19:51:04;7.3;96.0
22676;DHT22;12521;43.310;21.876;2023-04-03T19:55:40;7.3;96.0
22676;DHT22;12521;43.310;21.876;2023-04-03T20:00:19;7.3;96.0
22676;DHT22;12521;43.310;21.876;2023-04-03T20:04:55;7.3;96.0
22676;DHT22;12521;43.310;21.876;2023-04-03T20:09:32;7.3;96.0
22676;DHT22;12521;43.310;21.876;2023-04-03T20:14:08;7.3;96.0
22676;DHT22;12521;43.310;21.876;2023-04-03T20:18:44;7.2;96.0
22676;DHT22;12521;43.310;21.876;2023-04-03T20:23:22;7.2;96.0
22676;DHT22;12521;43.310;21.876;2023-04-03T20:27:59;7.2;96.0
22676;DHT22;12521;43.310;21.876;2023-04-03T20:32:35;7.2;96.0
22676;DHT22;12521;43.310;21.876;2023-04-03T20:37:13;7.1;96.0
22676;DHT22;12521;43.310;21.876;2023-04-03T20:41:50;7.1;96.0
22676;DHT22;12521;43.310;21.876;2023-04-03T20:46:26;7.0;96.0
22676;DHT22;12521;43.310;21.876;2023-04-03T20:51:16;7.0;96.0
22676;DHT22;12521;43.310;21.876;2023-04-03T20:55:59;7.0;96.0
22676;DHT22;12521;43.310;21.876;2023-04-03T21:00:36;7.0;96.0
22676;DHT22;12521;43.310;21.876;2023-04-03T21:05:17;6.9;96.0
22676;DHT22;12521;43.310;21.876;2023-04-03T21:21:03;6.8;96.0
22676;DHT22;12521;43.310;21.876;2023-04-03T21:25:41;6.8;96.0
22676;DHT22;12521;43.310;21.876;2023-04-03T21:30:18;6.8;96.0
22676;DHT22;12521;43.310;21.876;2023-04-03T21:34:54;6.8;96.0
22676;DHT22;12521;43.310;21.876;2023-04-03T21:39:32;6.8;96.0
22676;DHT22;12521;43.310;21.876;2023-04-03T21:44:10;6.8;96.0
22676;DHT22;12521;43.310;21.876;2023-04-03T21:48:47;6.7;96.0
22676;DHT22;12521;43.310;21.876;2023-04-03T21:53:24;6.7;96.0
22676;DHT22;12521;43.310;21.876;2023-04-03T21:58:00;6.6;96.0
22676;DHT22;12521;43.310;21.876;2023-04-03T22:02:39;6.6;96.0
22676;DHT22;12521;43.310;21.876;2023-04-03T22:07:16;6.6;96.0
22676;DHT22;12521;43.310;21.876;2023-04-03T22:11:52;6.6;96.0
22676;DHT22;12521;43.310;21.876;2023-04-03T22:16:29;6.6;96.0
22676;DHT22;12521;43.310;21.876;2023-04-03T22:21:06;6.6;96.0
22676;DHT22;12521;43.310;21.876;2023-04-03T22:25:42;6.6;96.0
22676;DHT22;12521;43.310;21.876;2023-04-03T22:30:31;6.6;96.0
22676;DHT22;12521;43.310;21.876;2023-04-03T22:35:08;6.5;96.0
22676;DHT22;12521;43.310;21.876;2023-04-03T22:39:44;6.5;96.0
22676;DHT22;12521;43.310;21.876;2023-04-03T22:44:21;6.5;96.0
22676;DHT22;12521;43.310;21.876;2023-04-03T22:48:57;6.4;96.0
22676;DHT22;12521;43.310;21.876;2023-04-03T22:53:35;6.4;96.0
22676;DHT22;12521;43.310;21.876;2023-04-03T22:58:12;6.2;96.0
22676;DHT22;12521;43.310;21.876;2023-04-03T23:02:48;6.2;96.0
22676;DHT22;12521;43.310;21.876;2023-04-03T23:07:25;6.0;96.0
22676;DHT22;12521;43.310;21.876;2023-04-03T23:12:01;6.0;96.0
22676;DHT22;12521;43.310;21.876;2023-04-03T23:16:39;5.6;96.0
22676;DHT22;12521;43.310;21.876;2023-04-03T23:21:16;5.6;96.0
22676;DHT22;12521;43.310;21.876;2023-04-03T23:25:55;5.3;96.0
22676;DHT22;12521;43.310;21.876;2023-04-03T23:30:37;5.3;96.0
22676;DHT22;12521;43.310;21.876;2023-04-03T23:35:14;5.1;96.0
22676;DHT22;12521;43.310;21.876;2023-04-03T23:39:51;5.1;96.0
22676;DHT22;12521;43.310;21.876;2023-04-03T23:44:28;5.1;96.0
22676;DHT22;12521;43.310;21.876;2023-04-03T23:49:05;4.9;96.0
22676;DHT22;12521;43.310;21.876;2023-04-03T23:53:42;4.9;96.0
22676;DHT22;12521;43.310;21.876;2023-04-03T23:58:19;4.7;96.0
